Time;durP1;ratioP1;P1;durP2;ratioP2;P2;SDS_P1;SDS_P2;PMS_P1;PMS_P2;Temp;Humidity;BMP_temperature;BMP_pressure;BME280_temperature;BME280_humidity;BME280_pressure;Samples;Min_cycle;Max_cycle;Signal;HPM_P1;HPM_P2
2022/07/27 00:00:46;;;;;;;1.33;1.20;;;;;;;;;;4213730;28;20430;-56
2022/07/27 00:02:47;;;;;;;1.50;1.27;;;;;;;;;;4213924;28;20036;-56
2022/07/27 00:04:48;;;;;;;3.13;1.27;;;;;;;;;;4213951;28;20035;-57
2022/07/27 00:06:49;;;;;;;1.60;1.30;;;;;;;;;;4214134;28;20059;-57
2022/07/27 00:08:50;;;;;;;3.00;1.42;;;;;;;;;;4214215;28;20033;-56
2022/07/27 00:10:51;;;;;;;1.33;0.90;;;;;;;;;;4214638;28;20471;-57
2022/07/27 00:12:52;;;;;;;2.17;1.33;;;;;;;;;;4214978;28;20418;-57
2022/07/27 00:14:53;;;;;;;4.50;1.85;;;;;;;;;;4212609;28;20077;-56
2022/07/27 00:16:54;;;;;;;3.55;1.60;;;;;;;;;;4212673;28;20064;-56
2022/07/27 00:18:55;;;;;;;1.30;1.20;;;;;;;;;;4213961;28;20028;-57
2022/07/27 00:20:56;;;;;;;2.03;1.50;;;;;;;;;;4213686;28;20028;-56
2022/07/27 00:22:57;;;;;;;1.42;1.20;;;;;;;;;;4213491;28;20127;-56
2022/07/27 00:24:58;;;;;;;1.95;1.48;;;;;;;;;;4213794;28;20081;-54
2022/07/27 00:26:59;;;;;;;1.85;1.23;;;;;;;;;;4213513;28;20067;-56
2022/07/27 00:29:00;;;;;;;1.55;1.30;;;;;;;;;;4213158;28;20042;-56
2022/07/27 00:31:01;;;;;;;1.65;1.52;;;;;;;;;;4214043;28;20122;-57
2022/07/27 00:33:02;;;;;;;1.48;1.20;;;;;;;;;;4216853;28;20089;-55
2022/07/27 00:35:03;;;;;;;3.05;1.40;;;;;;;;;;4216984;28;20040;-57
2022/07/27 00:37:04;;;;;;;1.90;1.25;;;;;;;;;;4216903;28;20063;-56
2022/07/27 00:39:07;;;;;;;1.58;1.30;;;;;;;;;;4216422;28;20181;-55
2022/07/27 00:41:08;;;;;;;1.67;1.30;;;;;;;;;;4216674;28;20032;-56
2022/07/27 00:43:09;;;;;;;1.95;1.63;;;;;;;;;;4215480;28;20456;-56
2022/07/27 00:45:10;;;;;;;1.67;1.58;;;;;;;;;;4216901;28;20119;-56
2022/07/27 00:47:11;;;;;;;2.20;1.27;;;;;;;;;;4215804;28;20020;-56
2022/07/27 00:49:15;;;;;;;1.70;1.20;;;;;;;;;;4220006;28;20038;-57
2022/07/27 00:51:16;;;;;;;1.77;1.45;;;;;;;;;;4233543;28;20031;-55
2022/07/27 00:53:20;;;;;;;1.65;1.30;;;;;;;;;;4231397;28;20360;-56
2022/07/27 00:55:21;;;;;;;2.58;1.38;;;;;;;;;;4219702;28;20043;-57
2022/07/27 00:57:22;;;;;;;1.60;1.50;;;;;;;;;;4216964;28;20033;-56
2022/07/27 00:59:24;;;;;;;1.80;1.40;;;;;;;;;;4225127;28;20389;-56
2022/07/27 01:01:25;;;;;;;2.03;1.50;;;;;;;;;;4233265;28;20032;-55
2022/07/27 01:03:26;;;;;;;1.38;1.27;;;;;;;;;;4223402;28;20048;-57
2022/07/27 01:05:27;;;;;;;1.98;1.60;;;;;;;;;;4216300;28;20032;-56
2022/07/27 01:07:31;;;;;;;6.22;1.48;;;;;;;;;;4212995;28;20043;-56
2022/07/27 01:11:54;;;;;;;1.80;1.30;;;;;;;;;;4217418;28;20020;-57
2022/07/27 01:13:54;;;;;;;2.58;1.38;;;;;;;;;;4216867;28;20027;-57
2022/07/27 01:15:55;;;;;;;2.63;1.20;;;;;;;;;;4216538;28;20027;-58
2022/07/27 01:17:56;;;;;;;1.38;1.13;;;;;;;;;;4212659;28;20502;-55
2022/07/27 01:19:59;;;;;;;2.22;1.40;;;;;;;;;;4214552;28;20034;-57
2022/07/27 01:22:01;;;;;;;2.83;1.30;;;;;;;;;;4222359;28;20360;-57
2022/07/27 01:24:02;;;;;;;1.38;1.27;;;;;;;;;;4233472;28;20467;-58
2022/07/27 01:26:04;;;;;;;3.13;1.55;;;;;;;;;;4232614;28;20523;-58
2022/07/27 01:28:08;;;;;;;2.97;1.40;;;;;;;;;;4232669;28;20032;-57
2022/07/27 01:30:28;;;;;;;4.20;1.58;;;;;;;;;;4215692;28;20097;-56
2022/07/27 01:32:32;;;;;;;1.27;1.17;;;;;;;;;;4217017;28;20040;-58
2022/07/27 01:34:34;;;;;;;3.63;1.50;;;;;;;;;;4215810;28;20040;-58
2022/07/27 01:36:35;;;;;;;1.25;1.15;;;;;;;;;;4215829;28;20040;-57
2022/07/27 01:38:35;;;;;;;1.88;1.13;;;;;;;;;;4214682;28;20453;-57
2022/07/27 01:40:38;;;;;;;1.55;1.40;;;;;;;;;;4215833;28;20055;-57
2022/07/27 01:42:39;;;;;;;1.88;1.50;;;;;;;;;;4215547;28;20149;-57
2022/07/27 01:44:40;;;;;;;4.97;1.40;;;;;;;;;;4219074;28;20035;-58
2022/07/27 01:46:44;;;;;;;2.00;1.33;;;;;;;;;;4215650;28;20036;-57
2022/07/27 01:48:45;;;;;;;3.20;1.40;;;;;;;;;;4216513;28;20040;-55
2022/07/27 01:50:46;;;;;;;2.42;1.50;;;;;;;;;;4216007;28;20291;-58
2022/07/27 01:52:47;;;;;;;2.88;1.25;;;;;;;;;;4215191;28;20479;-57
2022/07/27 01:54:51;;;;;;;1.20;1.05;;;;;;;;;;4211406;28;20093;-57
2022/07/27 01:56:52;;;;;;;3.15;1.35;;;;;;;;;;4214578;28;20024;-56
2022/07/27 01:58:54;;;;;;;1.73;1.50;;;;;;;;;;4213476;28;20434;-57
2022/07/27 02:00:54;;;;;;;2.17;1.60;;;;;;;;;;4215239;28;20089;-57
2022/07/27 02:02:55;;;;;;;1.70;1.38;;;;;;;;;;4216444;28;20502;-57
2022/07/27 02:04:56;;;;;;;1.33;1.20;;;;;;;;;;4231793;28;20419;-57
2022/07/27 02:06:57;;;;;;;2.78;1.42;;;;;;;;;;4232166;28;20387;-57
2022/07/27 02:08:58;;;;;;;3.17;1.40;;;;;;;;;;4230546;28;20032;-58
2022/07/27 02:13:18;;;;;;;1.65;1.30;;;;;;;;;;4217032;28;20032;-57
2022/07/27 02:15:21;;;;;;;1.30;1.20;;;;;;;;;;4215368;28;20387;-57
2022/07/27 02:17:22;;;;;;;1.52;1.35;;;;;;;;;;4215061;28;20093;-57
2022/07/27 02:19:23;;;;;;;2.45;1.45;;;;;;;;;;4215004;28;20399;-58
2022/07/27 02:21:26;;;;;;;1.55;1.30;;;;;;;;;;4215491;28;20482;-57
2022/07/27 02:23:27;;;;;;;2.55;1.95;;;;;;;;;;4214547;28;20032;-56
2022/07/27 02:25:28;;;;;;;1.20;1.10;;;;;;;;;;4216336;28;20078;-57
2022/07/27 02:27:29;;;;;;;2.05;1.38;;;;;;;;;;4213295;28;20040;-57
2022/07/27 02:29:56;;;;;;;2.97;1.23;;;;;;;;;;4215655;28;20032;-57
2022/07/27 02:31:57;;;;;;;6.35;1.55;;;;;;;;;;4212843;28;20069;-56
2022/07/27 02:36:35;;;;;;;4.63;1.40;;;;;;;;;;4165266;28;20024;-57
2022/07/27 02:38:42;;;;;;;4.97;1.63;;;;;;;;;;4213211;28;20065;-58
2022/07/27 02:40:43;;;;;;;2.05;1.20;;;;;;;;;;4214823;28;20078;-56
2022/07/27 02:42:44;;;;;;;2.70;1.50;;;;;;;;;;4215923;28;20052;-57
2022/07/27 02:44:45;;;;;;;1.67;1.23;;;;;;;;;;4215399;28;20028;-56
2022/07/27 02:46:46;;;;;;;6.10;1.65;;;;;;;;;;4215173;28;20123;-57
2022/07/27 02:48:47;;;;;;;2.08;1.77;;;;;;;;;;4214776;28;20070;-57
2022/07/27 02:50:48;;;;;;;3.25;1.40;;;;;;;;;;4214282;28;20039;-57
2022/07/27 02:52:51;;;;;;;4.22;1.52;;;;;;;;;;4214844;28;20406;-55
2022/07/27 02:54:52;;;;;;;5.65;1.33;;;;;;;;;;4212717;28;20074;-56
2022/07/27 02:56:54;;;;;;;2.17;1.58;;;;;;;;;;4212212;28;20471;-56
2022/07/27 02:58:55;;;;;;;4.75;1.52;;;;;;;;;;4213616;28;20085;-57
2022/07/27 03:00:56;;;;;;;4.20;1.50;;;;;;;;;;4209541;28;20028;-55
2022/07/27 03:02:57;;;;;;;9.85;2.13;;;;;;;;;;4214601;28;20110;-56
2022/07/27 03:07:26;;;;;;;13.75;2.22;;;;;;;;;;4198473;28;20033;-53
2022/07/27 03:09:27;;;;;;;10.05;2.20;;;;;;;;;;4198026;28;20526;-54
2022/07/27 03:11:27;;;;;;;13.00;1.98;;;;;;;;;;4231483;28;20042;-53
2022/07/27 03:13:29;;;;;;;12.60;2.25;;;;;;;;;;4231789;28;20042;-53
2022/07/27 03:15:31;;;;;;;5.38;1.65;;;;;;;;;;4222543;28;20039;-54
2022/07/27 03:17:41;;;;;;;6.72;1.95;;;;;;;;;;4213043;28;20040;-55
2022/07/27 03:19:42;;;;;;;8.40;1.90;;;;;;;;;;4228813;28;20043;-54
2022/07/27 03:21:43;;;;;;;8.52;1.83;;;;;;;;;;4231391;28;20061;-55
2022/07/27 03:23:44;;;;;;;6.85;1.90;;;;;;;;;;4219326;28;20075;-56
2022/07/27 03:25:44;;;;;;;6.47;1.70;;;;;;;;;;4214020;28;20093;-56
2022/07/27 03:27:45;;;;;;;6.47;1.60;;;;;;;;;;4214094;28;20038;-56
2022/07/27 03:29:46;;;;;;;6.55;1.60;;;;;;;;;;4212577;28;20067;-56
2022/07/27 03:31:47;;;;;;;5.70;1.80;;;;;;;;;;4215438;28;20042;-56
2022/07/27 03:34:17;;;;;;;3.72;1.38;;;;;;;;;;4214536;28;20036;-68
2022/07/27 03:36:49;;;;;;;3.33;1.60;;;;;;;;;;4212422;28;20405;-82
2022/07/27 03:39:29;;;;;;;4.25;2.17;;;;;;;;;;4214086;28;20105;-72
2022/07/27 03:41:29;;;;;;;4.15;1.35;;;;;;;;;;4230814;28;20031;-77
2022/07/27 03:43:30;;;;;;;3.75;1.83;;;;;;;;;;4226900;28;20107;-77
2022/07/27 03:45:31;;;;;;;5.85;1.80;;;;;;;;;;4214410;28;20039;-76
2022/07/27 03:47:32;;;;;;;6.28;1.80;;;;;;;;;;4210850;28;20028;-76
2022/07/27 03:49:33;;;;;;;2.28;1.80;;;;;;;;;;4200932;28;20068;-76
2022/07/27 03:51:34;;;;;;;3.50;1.98;;;;;;;;;;4212989;28;20028;-76
2022/07/27 03:53:35;;;;;;;7.28;1.90;;;;;;;;;;4214033;28;20038;-75
2022/07/27 03:55:36;;;;;;;4.78;1.35;;;;;;;;;;4214078;28;20085;-77
2022/07/27 03:57:37;;;;;;;4.57;2.35;;;;;;;;;;4211472;28;20036;-76
2022/07/27 03:59:38;;;;;;;3.45;1.63;;;;;;;;;;4213818;28;20035;-74
2022/07/27 04:01:38;;;;;;;4.63;1.70;;;;;;;;;;4214616;28;20416;-74
2022/07/27 04:03:39;;;;;;;3.00;1.80;;;;;;;;;;4214277;28;20047;-74
2022/07/27 04:05:40;;;;;;;2.78;1.63;;;;;;;;;;4213787;28;20023;-75
2022/07/27 04:07:41;;;;;;;3.67;1.35;;;;;;;;;;4218214;28;20383;-73
2022/07/27 04:09:45;;;;;;;3.40;1.92;;;;;;;;;;4223776;28;20028;-75
2022/07/27 04:11:46;;;;;;;2.95;1.65;;;;;;;;;;4214354;28;20012;-76
2022/07/27 04:13:50;;;;;;;2.58;1.33;;;;;;;;;;4214474;28;20451;-76
2022/07/27 04:15:51;;;;;;;4.07;1.55;;;;;;;;;;4213492;28;20085;-76
2022/07/27 04:17:52;;;;;;;2.83;1.40;;;;;;;;;;4214172;28;20052;-76
2022/07/27 04:19:53;;;;;;;3.25;1.60;;;;;;;;;;4213548;28;20066;-76
2022/07/27 04:21:54;;;;;;;6.72;1.38;;;;;;;;;;4214676;28;20016;-76
2022/07/27 04:23:55;;;;;;;2.45;1.45;;;;;;;;;;4212931;28;20529;-75
2022/07/27 04:25:58;;;;;;;3.15;1.50;;;;;;;;;;4214288;28;20341;-75
2022/07/27 04:28:17;;;;;;;5.50;1.50;;;;;;;;;;4214275;28;20456;-76
2022/07/27 04:33:15;;;;;;;5.00;1.60;;;;;;;;;;4175916;28;20066;-76
2022/07/27 04:35:16;;;;;;;5.85;2.00;;;;;;;;;;4213083;28;20085;-76
2022/07/27 04:37:17;;;;;;;5.03;1.52;;;;;;;;;;4214142;28;20379;-77
2022/07/27 04:39:19;;;;;;;7.53;1.98;;;;;;;;;;4211885;28;20048;-76
2022/07/27 04:41:22;;;;;;;5.25;1.63;;;;;;;;;;4213489;28;20089;-77
2022/07/27 04:43:23;;;;;;;7.97;1.70;;;;;;;;;;4213580;28;20417;-76
2022/07/27 04:45:27;;;;;;;3.50;1.48;;;;;;;;;;4213605;28;20040;-75
2022/07/27 04:47:28;;;;;;;6.35;1.58;;;;;;;;;;4213673;28;20093;-77
2022/07/27 04:49:29;;;;;;;2.17;1.48;;;;;;;;;;4213201;28;20040;-75
2022/07/27 04:51:50;;;;;;;3.97;1.77;;;;;;;;;;4214030;28;20542;-75
2022/07/27 04:54:10;;;;;;;4.57;1.52;;;;;;;;;;4212138;28;20036;-76
2022/07/27 04:56:50;;;;;;;;;;;;;;;;;;;;;
2022/07/27 04:58:51;;;;;;;3.40;2.00;;;;;;;;;;4213747;28;20024;-76
2022/07/27 05:03:44;;;;;;;3.38;1.60;;;;;;;;;;4175649;28;20036;-76
2022/07/27 05:05:45;;;;;;;2.63;1.42;;;;;;;;;;4213947;28;20069;-77
2022/07/27 05:07:46;;;;;;;5.85;2.58;;;;;;;;;;4213390;28;20442;-75
2022/07/27 05:09:47;;;;;;;3.83;1.55;;;;;;;;;;4212237;28;20013;-76
2022/07/27 05:11:48;;;;;;;2.80;1.40;;;;;;;;;;4213488;28;20038;-75
2022/07/27 05:14:26;;;;;;;2.28;1.50;;;;;;;;;;4213956;28;20031;-76
2022/07/27 05:16:29;;;;;;;1.60;1.33;;;;;;;;;;4213486;28;20040;-76
2022/07/27 05:18:31;;;;;;;2.85;2.08;;;;;;;;;;4215739;28;20471;-76
2022/07/27 05:21:10;;;;;;;2.70;1.50;;;;;;;;;;4215088;28;20072;-76
2022/07/27 05:23:28;;;;;;;1.48;1.38;;;;;;;;;;4206799;28;20039;-76
2022/07/27 05:25:35;;;;;;;1.63;1.20;;;;;;;;;;4215596;28;20077;-76
2022/07/27 05:27:39;;;;;;;2.90;1.50;;;;;;;;;;4216440;28;20093;-75
2022/07/27 05:29:40;;;;;;;1.95;1.50;;;;;;;;;;4216234;28;20028;-75
2022/07/27 05:31:41;;;;;;;2.13;1.67;;;;;;;;;;4216666;28;20103;-74
2022/07/27 05:33:44;;;;;;;2.72;1.75;;;;;;;;;;4216546;28;20059;-71
2022/07/27 05:35:45;;;;;;;5.53;1.52;;;;;;;;;;4215388;28;20031;-76
2022/07/27 05:37:46;;;;;;;3.30;1.73;;;;;;;;;;4215167;28;20028;-75
2022/07/27 05:39:47;;;;;;;2.53;1.20;;;;;;;;;;4215625;28;20044;-75
2022/07/27 05:41:53;;;;;;;5.30;1.80;;;;;;;;;;4215951;28;20375;-76
2022/07/27 05:43:54;;;;;;;3.42;1.70;;;;;;;;;;4214749;28;20426;-75
2022/07/27 05:45:58;;;;;;;4.22;1.85;;;;;;;;;;4216405;28;20016;-76
2022/07/27 05:47:58;;;;;;;2.85;1.60;;;;;;;;;;4215594;28;20040;-77
2022/07/27 05:50:03;;;;;;;2.22;1.35;;;;;;;;;;4215987;28;20463;-77
2022/07/27 05:52:23;;;;;;;3.83;1.85;;;;;;;;;;4215755;28;20036;-78
2022/07/27 05:54:50;;;;;;;2.58;1.17;;;;;;;;;;4209725;28;20047;-76
2022/07/27 05:56:57;;;;;;;2.38;1.40;;;;;;;;;;4213377;28;20169;-77
2022/07/27 05:58:58;;;;;;;3.97;1.65;;;;;;;;;;4215884;28;20028;-77
2022/07/27 06:00:59;;;;;;;3.50;1.50;;;;;;;;;;4214296;28;20445;-78
2022/07/27 06:03:00;;;;;;;3.80;1.80;;;;;;;;;;4215604;28;20040;-77
2022/07/27 06:05:04;;;;;;;2.42;1.35;;;;;;;;;;4216006;28;20422;-75
2022/07/27 06:09:36;;;;;;;2.60;1.30;;;;;;;;;;4215692;28;20036;-78
2022/07/27 06:11:40;;;;;;;1.90;1.30;;;;;;;;;;4216184;28;20020;-78
2022/07/27 06:13:44;;;;;;;4.15;1.85;;;;;;;;;;4215377;28;20040;-77
2022/07/27 06:15:54;;;;;;;2.88;1.67;;;;;;;;;;4215995;28;20456;-78
2022/07/27 06:18:02;;;;;;;2.50;1.60;;;;;;;;;;4210048;28;20036;-78
2022/07/27 06:20:04;;;;;;;1.55;1.30;;;;;;;;;;4215382;28;20402;-76
2022/07/27 06:22:45;;;;;;;2.22;1.48;;;;;;;;;;4215729;28;20024;-78
2022/07/27 06:24:57;;;;;;;2.40;1.60;;;;;;;;;;4214910;28;20540;-78
2022/07/27 06:27:26;;;;;;;3.22;1.65;;;;;;;;;;4215188;28;20036;-77
2022/07/27 06:29:59;;;;;;;3.08;1.38;;;;;;;;;;4214769;28;20384;-78
2022/07/27 06:32:00;;;;;;;2.28;1.42;;;;;;;;;;4181409;28;20093;-77
2022/07/27 06:34:01;;;;;;;1.50;1.40;;;;;;;;;;4215212;28;20122;-78
2022/07/27 06:36:04;;;;;;;1.45;1.35;;;;;;;;;;4214331;28;20065;-77
2022/07/27 06:38:08;;;;;;;1.70;1.20;;;;;;;;;;4215617;28;20024;-78
2022/07/27 06:40:11;;;;;;;1.33;1.20;;;;;;;;;;4214754;28;20044;-77
2022/07/27 06:42:14;;;;;;;1.90;1.38;;;;;;;;;;4214961;28;20434;-78
2022/07/27 06:44:15;;;;;;;2.75;1.50;;;;;;;;;;4215649;28;20417;-78
2022/07/27 06:46:18;;;;;;;2.67;1.50;;;;;;;;;;4214903;28;20034;-78
2022/07/27 06:48:20;;;;;;;2.53;1.75;;;;;;;;;;4214901;28;20028;-77
2022/07/27 06:50:23;;;;;;;2.72;1.35;;;;;;;;;;4215139;28;20020;-73
2022/07/27 06:52:24;;;;;;;2.15;1.35;;;;;;;;;;4214166;28;20028;-75
2022/07/27 06:54:25;;;;;;;2.72;1.50;;;;;;;;;;4214571;28;20040;-74
2022/07/27 06:56:26;;;;;;;1.85;1.50;;;;;;;;;;4214840;28;20038;-74
2022/07/27 06:58:30;;;;;;;3.45;1.40;;;;;;;;;;4214693;28;20074;-74
2022/07/27 07:00:31;;;;;;;1.98;1.30;;;;;;;;;;4214862;28;20097;-74
2022/07/27 07:02:32;;;;;;;2.28;1.63;;;;;;;;;;4214796;28;20036;-74
2022/07/27 07:04:39;;;;;;;3.40;1.60;;;;;;;;;;4214847;28;20071;-74
2022/07/27 07:06:40;;;;;;;1.52;1.42;;;;;;;;;;4214213;28;20031;-77
2022/07/27 07:08:41;;;;;;;1.67;1.40;;;;;;;;;;4213771;28;20112;-74
2022/07/27 07:10:45;;;;;;;1.58;1.23;;;;;;;;;;4214241;28;20531;-76
2022/07/27 07:12:46;;;;;;;2.13;1.52;;;;;;;;;;4214701;28;20054;-75
2022/07/27 07:14:56;;;;;;;4.70;1.55;;;;;;;;;;4214540;28;20034;-76
2022/07/27 07:16:59;;;;;;;1.52;1.38;;;;;;;;;;4215002;28;20024;-76
2022/07/27 07:19:00;;;;;;;2.53;1.40;;;;;;;;;;4214473;28;20093;-76
2022/07/27 07:21:04;;;;;;;2.38;1.33;;;;;;;;;;4214471;28;20067;-74
2022/07/27 07:23:07;;;;;;;2.45;1.50;;;;;;;;;;4214905;28;20090;-76
2022/07/27 07:25:08;;;;;;;1.80;1.30;;;;;;;;;;4214386;28;20032;-76
2022/07/27 07:27:09;;;;;;;1.63;1.30;;;;;;;;;;4213579;28;20020;-76
2022/07/27 07:29:10;;;;;;;2.05;1.60;;;;;;;;;;4214101;28;20032;-76
2022/07/27 07:31:11;;;;;;;3.63;1.50;;;;;;;;;;4214747;28;20077;-76
2022/07/27 07:33:12;;;;;;;2.30;1.35;;;;;;;;;;4214830;28;20118;-75
2022/07/27 07:35:13;;;;;;;1.70;1.42;;;;;;;;;;4214230;28;20123;-76
2022/07/27 07:37:14;;;;;;;3.40;1.50;;;;;;;;;;4214270;28;20066;-75
2022/07/27 07:39:16;;;;;;;1.42;1.33;;;;;;;;;;4213945;28;20081;-75
2022/07/27 07:41:19;;;;;;;1.55;1.45;;;;;;;;;;4214438;28;20024;-76
2022/07/27 07:43:20;;;;;;;1.35;1.25;;;;;;;;;;4214438;28;20036;-74
2022/07/27 07:45:28;;;;;;;1.80;1.55;;;;;;;;;;4213407;28;20115;-75
2022/07/27 07:47:29;;;;;;;2.55;1.45;;;;;;;;;;4214373;28;20097;-75
2022/07/27 07:49:30;;;;;;;1.60;1.40;;;;;;;;;;4214301;28;20024;-76
2022/07/27 07:51:31;;;;;;;1.60;1.50;;;;;;;;;;4214136;28;20089;-75
2022/07/27 07:53:32;;;;;;;1.48;1.38;;;;;;;;;;4214168;28;20550;-75
2022/07/27 07:55:33;;;;;;;1.98;1.48;;;;;;;;;;4213915;28;20139;-76
2022/07/27 07:57:34;;;;;;;3.67;1.40;;;;;;;;;;4214577;28;20020;-76
2022/07/27 07:59:37;;;;;;;2.33;1.50;;;;;;;;;;4214240;28;20059;-76
2022/07/27 08:01:38;;;;;;;4.55;1.58;;;;;;;;;;4212272;28;20032;-77
2022/07/27 08:03:42;;;;;;;2.60;1.20;;;;;;;;;;4214114;28;20463;-76
2022/07/27 08:05:43;;;;;;;1.45;1.27;;;;;;;;;;4213900;28;20479;-77
2022/07/27 08:07:44;;;;;;;1.88;1.20;;;;;;;;;;4213997;28;20035;-77
2022/07/27 08:09:45;;;;;;;1.70;1.20;;;;;;;;;;4214158;28;20028;-76
2022/07/27 08:11:46;;;;;;;3.20;1.45;;;;;;;;;;4213931;28;20031;-76
2022/07/27 08:13:47;;;;;;;1.17;1.08;;;;;;;;;;4213888;28;20035;-76
2022/07/27 08:15:48;;;;;;;1.77;1.30;;;;;;;;;;4212535;28;20081;-76
2022/07/27 08:17:52;;;;;;;2.80;1.27;;;;;;;;;;4213982;28;20093;-75
2022/07/27 08:19:53;;;;;;;1.55;1.45;;;;;;;;;;4213653;28;20472;-75
2022/07/27 08:21:54;;;;;;;1.70;1.60;;;;;;;;;;4213840;28;20039;-75
2022/07/27 08:23:55;;;;;;;1.70;1.13;;;;;;;;;;4214350;28;20051;-76
2022/07/27 08:25:56;;;;;;;1.27;1.17;;;;;;;;;;4214440;28;20495;-77
2022/07/27 08:27:57;;;;;;;1.38;1.27;;;;;;;;;;4213862;28;20094;-76
2022/07/27 08:29:58;;;;;;;2.10;1.40;;;;;;;;;;4213931;28;20077;-76
2022/07/27 08:31:59;;;;;;;1.73;1.38;;;;;;;;;;4206660;28;20384;-75
2022/07/27 08:34:00;;;;;;;1.23;1.13;;;;;;;;;;4213741;28;20450;-75
2022/07/27 08:36:00;;;;;;;1.45;1.27;;;;;;;;;;4214204;28;20028;-76
2022/07/27 08:38:04;;;;;;;1.35;1.25;;;;;;;;;;4214210;28;20107;-74
2022/07/27 08:40:05;;;;;;;2.45;1.58;;;;;;;;;;4213423;28;20112;-76
2022/07/27 08:42:08;;;;;;;2.03;1.55;;;;;;;;;;4213634;28;20085;-78
2022/07/27 08:44:13;;;;;;;1.60;1.40;;;;;;;;;;4214111;28;20097;-75
2022/07/27 08:46:16;;;;;;;1.20;1.10;;;;;;;;;;4214252;28;20455;-76
2022/07/27 08:48:17;;;;;;;1.50;1.40;;;;;;;;;;4214215;28;20073;-75
2022/07/27 08:50:27;;;;;;;1.50;1.40;;;;;;;;;;4212221;28;20032;-75
2022/07/27 08:52:28;;;;;;;1.40;1.30;;;;;;;;;;4214621;28;20040;-74
2022/07/27 08:54:29;;;;;;;2.28;1.42;;;;;;;;;;4216763;28;20398;-74
2022/07/27 08:56:33;;;;;;;1.63;1.23;;;;;;;;;;4216824;28;20028;-76
2022/07/27 08:58:34;;;;;;;1.40;1.30;;;;;;;;;;4216826;28;20446;-75
2022/07/27 09:00:37;;;;;;;1.60;1.35;;;;;;;;;;4216274;28;20068;-75
2022/07/27 09:02:41;;;;;;;1.75;1.40;;;;;;;;;;4217269;28;20017;-74
2022/07/27 09:04:42;;;;;;;2.63;1.30;;;;;;;;;;4216665;28;20486;-73
2022/07/27 09:06:42;;;;;;;1.40;1.30;;;;;;;;;;4215176;28;20036;-75
2022/07/27 09:08:56;;;;;;;1.73;1.27;;;;;;;;;;4216417;28;20032;-73
2022/07/27 09:10:58;;;;;;;1.63;1.40;;;;;;;;;;4216507;28;20027;-74
2022/07/27 09:13:14;;;;;;;1.40;1.25;;;;;;;;;;4216584;28;20097;-74
2022/07/27 09:15:16;;;;;;;1.83;1.30;;;;;;;;;;4216889;28;20020;-77
2022/07/27 09:17:27;;;;;;;1.25;1.17;;;;;;;;;;4216874;28;20073;-75
2022/07/27 09:19:28;;;;;;;1.23;1.13;;;;;;;;;;4215956;28;20529;-74
2022/07/27 09:21:29;;;;;;;2.10;1.45;;;;;;;;;;4216234;28;20114;-74
2022/07/27 09:23:29;;;;;;;2.20;1.40;;;;;;;;;;4215539;28;20024;-75
2022/07/27 09:25:32;;;;;;;1.40;1.30;;;;;;;;;;4216367;28;20378;-74
2022/07/27 09:27:33;;;;;;;1.58;1.30;;;;;;;;;;4216523;28;20429;-74
2022/07/27 09:29:40;;;;;;;1.58;1.30;;;;;;;;;;4215929;28;20040;-74
2022/07/27 09:31:48;;;;;;;1.30;1.20;;;;;;;;;;4215985;28;20040;-74
2022/07/27 09:33:50;;;;;;;1.92;1.20;;;;;;;;;;4215330;28;20020;-74
2022/07/27 09:35:57;;;;;;;1.30;1.20;;;;;;;;;;4216497;28;20039;-74
2022/07/27 09:38:18;;;;;;;1.30;1.20;;;;;;;;;;4216830;28;20081;-74
2022/07/27 09:40:22;;;;;;;1.20;1.08;;;;;;;;;;4213791;28;20105;-74
2022/07/27 09:42:23;;;;;;;1.58;1.20;;;;;;;;;;4215914;28;20085;-73
2022/07/27 09:44:40;;;;;;;1.50;1.40;;;;;;;;;;4216457;28;20524;-74
2022/07/27 09:46:42;;;;;;;1.58;1.30;;;;;;;;;;4216343;28;20024;-73
2022/07/27 09:48:42;;;;;;;1.38;1.25;;;;;;;;;;4215903;28;20032;-74
2022/07/27 09:50:45;;;;;;;1.23;1.13;;;;;;;;;;4215950;28;20110;-73
2022/07/27 09:52:46;;;;;;;2.85;1.40;;;;;;;;;;4215880;28;20032;-75
2022/07/27 09:54:47;;;;;;;2.88;1.33;;;;;;;;;;4215962;28;20048;-74
2022/07/27 09:56:57;;;;;;;1.55;1.45;;;;;;;;;;4214715;28;20032;-75
2022/07/27 09:59:01;;;;;;;1.63;1.30;;;;;;;;;;4215406;28;20109;-76
2022/07/27 10:01:02;;;;;;;1.30;1.20;;;;;;;;;;4214570;28;20085;-73
2022/07/27 10:03:06;;;;;;;1.25;1.15;;;;;;;;;;4214195;28;20024;-74
2022/07/27 10:05:10;;;;;;;1.83;1.50;;;;;;;;;;4215965;28;20032;-73
2022/07/27 10:07:12;;;;;;;1.30;1.20;;;;;;;;;;4215732;28;20036;-74
2022/07/27 10:09:13;;;;;;;1.88;1.48;;;;;;;;;;4214168;28;20036;-74
2022/07/27 10:11:14;;;;;;;1.50;1.40;;;;;;;;;;4215533;28;20097;-73
2022/07/27 10:13:15;;;;;;;1.42;1.33;;;;;;;;;;4219818;28;20386;-73
2022/07/27 10:15:16;;;;;;;1.33;1.15;;;;;;;;;;4232706;28;20028;-74
2022/07/27 10:17:20;;;;;;;1.25;1.15;;;;;;;;;;4232087;28;20074;-73
2022/07/27 10:19:24;;;;;;;1.92;1.50;;;;;;;;;;4231927;27;20027;-74
2022/07/27 10:21:25;;;;;;;1.60;1.40;;;;;;;;;;4232588;28;20539;-73
2022/07/27 10:23:31;;;;;;;1.42;1.33;;;;;;;;;;4232232;28;20023;-73
2022/07/27 10:25:32;;;;;;;2.05;1.50;;;;;;;;;;4232801;28;20507;-74
2022/07/27 10:27:33;;;;;;;2.40;1.63;;;;;;;;;;4232769;28;20095;-74
2022/07/27 10:29:36;;;;;;;2.53;1.27;;;;;;;;;;4228103;28;20031;-74
2022/07/27 10:31:38;;;;;;;1.38;1.10;;;;;;;;;;4215639;28;20028;-73
2022/07/27 10:33:43;;;;;;;1.23;1.13;;;;;;;;;;4215215;28;20087;-74
2022/07/27 10:35:44;;;;;;;;;;;;;;;;;;4215754;28;20070;-74
2022/07/27 10:38:04;;;;;;;2.15;1.30;;;;;;;;;;4215788;28;19949;-73
2022/07/27 10:40:52;;;;;;;1.42;1.33;;;;;;;;;;4222438;28;20478;-73
2022/07/27 10:42:29;;;;;;;1.20;1.10;;;;;;;;;;4218284;28;20093;-74
2022/07/27 10:44:30;;;;;;;1.30;1.20;;;;;;;;;;4232596;28;20019;-73
2022/07/27 10:46:31;;;;;;;1.52;1.35;;;;;;;;;;4218254;28;20367;-74
2022/07/27 10:48:36;;;;;;;1.42;1.27;;;;;;;;;;4215164;28;20115;-77
2022/07/27 10:50:46;;;;;;;1.55;1.23;;;;;;;;;;4211560;28;20396;-76
2022/07/27 10:52:48;;;;;;;2.30;1.38;;;;;;;;;;4215148;28;20100;-76
2022/07/27 10:54:49;;;;;;;2.17;1.30;;;;;;;;;;4222748;28;20043;-78
2022/07/27 10:56:51;;;;;;;1.23;1.13;;;;;;;;;;4232542;28;20459;-77
2022/07/27 10:58:52;;;;;;;1.40;1.30;;;;;;;;;;4231607;28;20092;-76
2022/07/27 11:00:53;;;;;;;1.48;1.38;;;;;;;;;;4232063;28;20044;-78
2022/07/27 11:02:54;;;;;;;1.42;1.30;;;;;;;;;;4229099;28;20085;-76
2022/07/27 11:04:55;;;;;;;2.00;1.30;;;;;;;;;;4215701;28;20035;-76
2022/07/27 11:06:59;;;;;;;1.75;1.40;;;;;;;;;;4217012;28;20020;-74
2022/07/27 11:09:00;;;;;;;1.40;1.30;;;;;;;;;;4216733;28;20441;-75
2022/07/27 11:11:03;;;;;;;1.58;1.48;;;;;;;;;;4224535;28;20421;-72
2022/07/27 11:13:04;;;;;;;1.27;1.15;;;;;;;;;;4235167;28;20015;-75
2022/07/27 11:15:05;;;;;;;1.35;1.25;;;;;;;;;;4231496;28;20084;-74
2022/07/27 11:17:09;;;;;;;1.20;1.10;;;;;;;;;;4232199;28;20409;-75
2022/07/27 11:19:10;;;;;;;1.70;1.20;;;;;;;;;;4225201;28;20488;-74
2022/07/27 11:21:22;;;;;;;1.20;1.10;;;;;;;;;;4220952;28;20040;-76
2022/07/27 11:23:23;;;;;;;2.08;1.27;;;;;;;;;;4214443;28;20024;-77
2022/07/27 11:25:24;;;;;;;1.50;1.40;;;;;;;;;;4219313;28;20055;-78
2022/07/27 11:27:25;;;;;;;1.23;1.15;;;;;;;;;;4231979;28;20019;-75
2022/07/27 11:29:26;;;;;;;2.40;1.50;;;;;;;;;;4234557;28;20130;-78
2022/07/27 11:31:29;;;;;;;1.95;1.40;;;;;;;;;;4233392;28;20115;-76
2022/07/27 11:33:30;;;;;;;8.75;1.50;;;;;;;;;;4233607;28;20020;-77
2022/07/27 11:35:31;;;;;;;4.45;1.40;;;;;;;;;;4221554;28;20032;-74
2022/07/27 11:37:35;;;;;;;6.57;2.00;;;;;;;;;;4212943;28;20442;-74
2022/07/27 11:39:36;;;;;;;4.10;1.42;;;;;;;;;;4213705;28;20425;-75
2022/07/27 11:41:37;;;;;;;4.40;1.60;;;;;;;;;;4214625;28;20040;-75
2022/07/27 11:43:39;;;;;;;8.90;2.08;;;;;;;;;;4214350;28;20418;-75
2022/07/27 11:45:41;;;;;;;10.00;2.40;;;;;;;;;;4214846;28;20081;-77
2022/07/27 11:47:42;;;;;;;13.73;2.13;;;;;;;;;;4215467;28;20578;-73
2022/07/27 11:49:43;;;;;;;7.75;1.60;;;;;;;;;;4202979;28;20025;-74
2022/07/27 11:51:48;;;;;;;5.93;1.67;;;;;;;;;;4213738;28;20032;-75
2022/07/27 11:53:56;;;;;;;7.75;1.50;;;;;;;;;;4216011;28;20097;-75
2022/07/27 11:55:57;;;;;;;5.35;1.60;;;;;;;;;;4196624;28;20082;-75
2022/07/27 11:58:03;;;;;;;6.38;1.60;;;;;;;;;;4209884;28;20042;-75
2022/07/27 12:00:04;;;;;;;5.18;1.40;;;;;;;;;;4218536;28;20020;-75
2022/07/27 12:02:16;;;;;;;4.00;1.40;;;;;;;;;;4218080;28;20039;-75
2022/07/27 12:04:18;;;;;;;2.38;1.30;;;;;;;;;;4221763;28;20048;-79
2022/07/27 12:06:19;;;;;;;3.28;1.65;;;;;;;;;;4232206;28;20028;-77
2022/07/27 12:08:20;;;;;;;3.72;1.40;;;;;;;;;;4232604;28;20036;-76
2022/07/27 12:10:21;;;;;;;3.63;1.45;;;;;;;;;;4231704;28;20035;-71
2022/07/27 12:12:24;;;;;;;7.22;1.58;;;;;;;;;;4228268;28;20070;-72
2022/07/27 12:14:32;;;;;;;2.80;1.48;;;;;;;;;;4222381;28;20036;-70
2022/07/27 12:16:35;;;;;;;3.45;1.40;;;;;;;;;;4222867;28;20048;-74
2022/07/27 12:18:42;;;;;;;10.82;2.15;;;;;;;;;;4239966;28;20065;-78
2022/07/27 12:20:47;;;;;;;3.92;1.35;;;;;;;;;;4241641;28;20032;-75
2022/07/27 12:22:48;;;;;;;;;;;;;;;;;;4240449;28;20036;-74
2022/07/27 12:24:58;;;;;;;4.85;1.67;;;;;;;;;;4230222;28;19911;-74
2022/07/27 12:27:01;;;;;;;1.80;1.38;;;;;;;;;;4231749;28;20028;-75
2022/07/27 12:29:09;;;;;;;2.13;1.33;;;;;;;;;;4233305;28;20016;-73
2022/07/27 12:31:16;;;;;;;2.35;1.50;;;;;;;;;;4223763;28;20044;-74
2022/07/27 12:33:25;;;;;;;2.42;1.90;;;;;;;;;;4218216;28;20020;-74
2022/07/27 12:35:44;;;;;;;2.17;1.52;;;;;;;;;;4217470;28;20024;-74
2022/07/27 12:37:46;;;;;;;4.43;1.65;;;;;;;;;;4217184;28;20040;-73
2022/07/27 12:39:47;;;;;;;4.03;1.42;;;;;;;;;;4213944;28;20441;-74